Time;durP1;ratioP1;P1;durP2;ratioP2;P2;SDS_P1;SDS_P2;PMS_P1;PMS_P2;Temp;Humidity;BMP_temperature;BMP_pressure;BME280_temperature;BME280_humidity;BME280_pressure;Samples;Min_cycle;Max_cycle;Signal;HPM_P1;HPM_P2
2023/02/26 00:00:59;;;;;;;4.70;2.70;;;-0.60;1.00;;;;;;5074642;28;20450;-62
2023/02/26 00:03:27;;;;;;;4.80;3.23;;;-0.70;1.00;;;;;;5059048;28;20436;-61
2023/02/26 00:05:54;;;;;;;11.07;4.33;;;-0.60;1.00;;;;;;5073388;28;20495;-61
2023/02/26 00:08:23;;;;;;;5.50;3.07;;;-0.60;1.00;;;;;;5078549;28;20485;-61
2023/02/26 00:10:50;;;;;;;6.23;3.10;;;-0.60;1.00;;;;;;5075896;28;20476;-62
2023/02/26 00:13:18;;;;;;;4.00;2.73;;;-0.60;1.00;;;;;;5077991;28;20450;-61
2023/02/26 00:15:45;;;;;;;5.03;2.80;;;-0.60;1.00;;;;;;5078968;28;20511;-61
2023/02/26 00:18:16;;;;;;;4.20;2.60;;;-0.60;1.00;;;;;;5079183;28;20461;-59
2023/02/26 00:20:44;;;;;;;7.80;3.10;;;-0.60;1.00;;;;;;5074468;28;20483;-61
2023/02/26 00:23:14;;;;;;;5.77;2.80;;;-0.70;1.00;;;;;;5076315;28;20576;-61
2023/02/26 00:25:43;;;;;;;6.70;3.10;;;-0.70;1.00;;;;;;5074987;28;21004;-62
2023/02/26 00:28:11;;;;;;;6.57;2.90;;;-0.60;1.00;;;;;;5078824;28;20498;-60
2023/02/26 00:30:39;;;;;;;5.70;2.80;;;-0.70;1.00;;;;;;5078435;28;20494;-61
2023/02/26 00:33:09;;;;;;;4.10;3.03;;;-0.70;1.00;;;;;;5074664;28;20448;-62
2023/02/26 00:35:37;;;;;;;7.80;2.80;;;-0.80;1.00;;;;;;5076948;28;20767;-62
2023/02/26 00:38:07;;;;;;;5.40;2.43;;;-0.80;1.00;;;;;;5076839;28;20962;-61
2023/02/26 00:40:43;;;;;;;5.90;2.90;;;-0.80;1.00;;;;;;5078082;28;20472;-62
2023/02/26 00:43:15;;;;;;;6.13;3.50;;;-0.90;1.00;;;;;;5075461;28;20472;-62
2023/02/26 00:45:48;;;;;;;4.47;2.60;;;-0.90;1.00;;;;;;5073571;28;20765;-60
2023/02/26 00:48:38;;;;;;;5.70;2.70;;;-0.80;1.00;;;;;;5076762;28;20479;-61
2023/02/26 00:51:13;;;;;;;7.13;2.63;;;-0.80;1.00;;;;;;5065664;28;20492;-62
2023/02/26 00:53:48;;;;;;;5.27;2.87;;;-0.90;1.00;;;;;;5075465;28;20484;-62
2023/02/26 00:56:18;;;;;;;5.13;2.63;;;-0.90;1.00;;;;;;5077312;28;20477;-62
2023/02/26 00:58:45;;;;;;;5.40;2.53;;;-0.90;1.00;;;;;;5074143;28;20501;-62
2023/02/26 01:01:12;;;;;;;5.97;2.50;;;-0.90;1.00;;;;;;5074736;28;20443;-62
2023/02/26 01:03:40;;;;;;;7.40;2.90;;;-1.00;1.00;;;;;;5078248;28;20464;-62
2023/02/26 01:06:11;;;;;;;6.20;2.40;;;-1.00;1.00;;;;;;5077760;28;20485;-62
2023/02/26 01:08:48;;;;;;;5.57;2.80;;;-0.90;1.00;;;;;;5076873;28;20490;-62
2023/02/26 01:11:17;;;;;;;6.60;3.47;;;-0.90;1.00;;;;;;5077171;28;20479;-62
2023/02/26 01:13:46;;;;;;;5.67;2.53;;;-1.00;1.00;;;;;;5077064;28;20564;-62
2023/02/26 01:16:21;;;;;;;3.97;2.00;;;-1.00;1.00;;;;;;5078371;28;20466;-62
2023/02/26 01:18:53;;;;;;;7.73;2.67;;;-0.90;1.00;;;;;;5076479;28;20504;-61
2023/02/26 01:21:27;;;;;;;2.90;2.30;;;-1.00;1.00;;;;;;5078114;28;20889;-61
2023/02/26 01:23:54;;;;;;;6.23;3.67;;;-0.90;1.00;;;;;;5076076;28;20479;-62
2023/02/26 01:26:26;;;;;;;5.30;2.50;;;-0.80;1.00;;;;;;5075023;28;20482;-62
2023/02/26 01:28:54;;;;;;;5.63;2.67;;;-0.80;1.00;;;;;;5072606;28;20511;-62
2023/02/26 01:31:32;;;;;;;5.80;3.30;;;-0.80;1.00;;;;;;5075540;28;20455;-60
2023/02/26 01:34:05;;;;;;;4.37;2.53;;;-0.80;1.00;;;;;;5076530;28;20987;-61
2023/02/26 01:36:36;;;;;;;4.03;2.20;;;-0.70;1.00;;;;;;5077777;28;20472;-62
2023/02/26 01:39:12;;;;;;;5.07;2.80;;;-0.80;1.00;;;;;;5073776;28;20445;-62
2023/02/26 01:41:46;;;;;;;5.20;2.70;;;-0.70;1.00;;;;;;5075053;28;20486;-62
2023/02/26 01:44:22;;;;;;;4.80;2.90;;;-0.70;1.00;;;;;;5077280;28;20461;-62
2023/02/26 01:47:02;;;;;;;8.27;2.60;;;-0.80;1.00;;;;;;5075784;28;20468;-61
2023/02/26 01:49:30;;;;;;;9.70;2.97;;;-0.80;1.00;;;;;;5077121;28;20497;-62
2023/02/26 01:51:59;;;;;;;5.13;2.90;;;-0.70;1.00;;;;;;5074825;28;20912;-62
2023/02/26 01:54:30;;;;;;;8.80;3.43;;;-0.70;1.00;;;;;;5075537;28;20499;-62
2023/02/26 01:57:03;;;;;;;4.23;2.37;;;-0.80;1.00;;;;;;5075218;28;20894;-59
2023/02/26 01:59:32;;;;;;;6.10;3.37;;;-0.80;1.00;;;;;;5077228;28;20504;-62
2023/02/26 02:02:02;;;;;;;6.80;2.87;;;-0.80;1.00;;;;;;5075293;28;20472;-62
2023/02/26 02:04:32;;;;;;;4.00;2.67;;;-0.80;1.00;;;;;;5076804;28;20467;-62
2023/02/26 02:07:00;;;;;;;3.80;2.23;;;-0.80;1.00;;;;;;5075509;28;20821;-62
2023/02/26 02:09:27;;;;;;;7.13;2.53;;;-0.80;1.00;;;;;;5076170;28;20893;-62
2023/02/26 02:12:10;;;;;;;4.07;3.17;;;-0.80;1.00;;;;;;5077386;28;20541;-62
2023/02/26 02:14:53;;;;;;;6.20;2.80;;;-0.90;1.00;;;;;;5075163;28;20478;-62
2023/02/26 02:17:30;;;;;;;6.80;2.73;;;-0.90;1.00;;;;;;5074898;28;20497;-62
2023/02/26 02:20:36;;;;;;;6.40;2.50;;;-1.00;1.00;;;;;;5076423;28;20560;-62
2023/02/26 02:23:15;;;;;;;6.10;2.40;;;-0.90;1.00;;;;;;5077180;28;20567;-62
2023/02/26 02:26:06;;;;;;;3.50;2.30;;;-1.10;1.00;;;;;;5071283;28;20469;-62
2023/02/26 02:28:50;;;;;;;4.17;2.40;;;-1.00;1.00;;;;;;5072859;28;20471;-62
2023/02/26 02:31:22;;;;;;;5.60;1.97;;;-1.10;1.00;;;;;;5076800;28;20458;-63
2023/02/26 02:33:52;;;;;;;5.47;2.33;;;-1.10;1.00;;;;;;5077961;28;20446;-62
2023/02/26 02:36:27;;;;;;;7.00;3.00;;;-1.10;1.00;;;;;;5073434;28;20992;-63
2023/02/26 02:38:59;;;;;;;5.57;2.70;;;-1.10;1.00;;;;;;5076279;28;20441;-63
2023/02/26 02:41:30;;;;;;;5.97;2.47;;;-1.20;1.00;;;;;;5078294;28;20782;-62
2023/02/26 02:44:02;;;;;;;9.80;3.00;;;-1.30;1.00;;;;;;5075157;28;20481;-62
2023/02/26 02:46:35;;;;;;;3.07;2.30;;;-1.40;1.00;;;;;;5081441;28;20548;-63
2023/02/26 02:49:04;;;;;;;5.57;2.63;;;-1.40;1.00;;;;;;5078689;28;20988;-62
2023/02/26 02:51:36;;;;;;;2.60;2.33;;;-1.40;1.00;;;;;;5079193;28;20901;-62
2023/02/26 02:54:08;;;;;;;4.40;2.20;;;-1.40;1.00;;;;;;5076086;28;20471;-62
2023/02/26 02:56:38;;;;;;;3.83;2.27;;;-1.40;1.00;;;;;;5078705;28;20580;-62
2023/02/26 02:59:15;;;;;;;3.57;1.97;;;-1.40;1.00;;;;;;5078278;28;20793;-62
2023/02/26 03:01:44;;;;;;;4.57;2.47;;;-1.40;1.00;;;;;;5075494;28;20470;-63
2023/02/26 03:04:15;;;;;;;3.77;2.20;;;-1.40;1.00;;;;;;5069054;28;20761;-62
2023/02/26 03:06:44;;;;;;;3.00;1.97;;;-1.30;1.00;;;;;;5077274;28;20498;-62
2023/02/26 03:09:11;;;;;;;6.60;2.23;;;-1.20;1.00;;;;;;5079586;28;20584;-62
2023/02/26 03:11:39;;;;;;;5.07;2.10;;;-1.20;1.00;;;;;;5080027;28;20473;-62
2023/02/26 03:14:09;;;;;;;6.10;2.47;;;-1.20;1.00;;;;;;5081296;28;20932;-62
2023/02/26 03:17:05;;;;;;;4.33;2.37;;;-1.20;1.00;;;;;;5079306;28;20472;-62
2023/02/26 03:19:40;;;;;;;4.13;2.10;;;-1.10;1.00;;;;;;5079668;28;20464;-62
2023/02/26 03:22:13;;;;;;;6.13;2.93;;;-1.10;1.00;;;;;;5076946;28;20744;-62
2023/02/26 03:24:50;;;;;;;3.30;1.97;;;-1.10;1.00;;;;;;5079006;28;20768;-62
2023/02/26 03:27:22;;;;;;;4.30;2.13;;;-1.00;1.00;;;;;;5080294;28;20468;-62
2023/02/26 03:29:54;;;;;;;4.70;2.60;;;-1.00;1.00;;;;;;5078977;28;20487;-62
2023/02/26 03:32:28;;;;;;;3.40;2.33;;;-1.00;1.00;;;;;;5078451;28;20563;-62
2023/02/26 03:35:01;;;;;;;5.80;2.97;;;-1.00;1.00;;;;;;5078660;28;20559;-62
2023/02/26 03:37:34;;;;;;;3.30;2.13;;;-1.00;1.00;;;;;;5079072;28;20522;-62
2023/02/26 03:40:06;;;;;;;4.90;2.30;;;-1.10;1.00;;;;;;5075399;28;20494;-62
2023/02/26 03:42:38;;;;;;;7.63;2.80;;;-1.10;1.00;;;;;;5076649;28;20465;-61
2023/02/26 03:45:09;;;;;;;5.70;2.00;;;-1.20;1.00;;;;;;5076548;28;20475;-61
2023/02/26 03:47:41;;;;;;;6.03;1.90;;;-1.30;1.00;;;;;;5076998;28;20526;-62
2023/02/26 03:50:13;;;;;;;5.80;2.33;;;-1.30;1.00;;;;;;5077812;28;20495;-62
2023/02/26 03:52:45;;;;;;;4.03;2.47;;;-1.40;1.00;;;;;;5078618;28;20973;-61
2023/02/26 03:55:17;;;;;;;5.63;2.50;;;-1.40;1.00;;;;;;5078239;28;20475;-59
2023/02/26 03:57:44;;;;;;;4.23;2.60;;;-1.40;1.00;;;;;;5076280;28;20565;-61
2023/02/26 04:00:13;;;;;;;7.43;2.53;;;-1.40;1.00;;;;;;5076665;28;20469;-61
2023/02/26 04:02:47;;;;;;;5.23;2.77;;;-1.50;1.00;;;;;;5078116;28;20920;-61
2023/02/26 04:05:18;;;;;;;6.00;2.53;;;-1.50;1.00;;;;;;5078274;28;20764;-62
2023/02/26 04:07:46;;;;;;;9.40;2.70;;;-1.50;1.00;;;;;;5078446;28;20471;-62
2023/02/26 04:10:16;;;;;;;4.97;2.43;;;-1.50;1.00;;;;;;5078248;28;20806;-61
2023/02/26 04:12:43;;;;;;;3.47;1.90;;;-1.50;1.00;;;;;;5078102;28;20475;-61
2023/02/26 04:15:12;;;;;;;4.43;2.37;;;-1.60;1.00;;;;;;5077894;28;20480;-60
2023/02/26 04:17:39;;;;;;;4.87;2.27;;;-1.60;1.00;;;;;;5078168;28;20474;-60
2023/02/26 04:20:09;;;;;;;4.87;2.33;;;-1.60;1.00;;;;;;5079173;28;20515;-61
2023/02/26 04:22:37;;;;;;;4.57;2.83;;;-1.60;1.00;;;;;;5078661;28;20792;-61
2023/02/26 04:25:06;;;;;;;6.67;2.20;;;-1.60;1.00;;;;;;5079231;28;20807;-61
2023/02/26 04:27:33;;;;;;;6.40;2.57;;;-1.60;1.00;;;;;;5078989;28;20829;-60
2023/02/26 04:30:00;;;;;;;4.43;2.30;;;-1.60;1.00;;;;;;5078816;28;20497;-60
2023/02/26 04:32:28;;;;;;;7.70;2.37;;;-1.60;1.00;;;;;;5079116;28;20458;-61
2023/02/26 04:34:55;;;;;;;7.13;2.77;;;-1.60;1.00;;;;;;5078879;28;20465;-62
2023/02/26 04:37:24;;;;;;;5.53;2.37;;;-1.60;1.00;;;;;;5073614;28;20483;-62
2023/02/26 04:39:51;;;;;;;6.30;2.67;;;-1.70;1.00;;;;;;5078657;28;20458;-62
2023/02/26 04:42:18;;;;;;;6.00;2.43;;;-1.70;1.00;;;;;;5075728;28;20469;-62
2023/02/26 04:44:45;;;;;;;8.47;4.47;;;-1.70;1.00;;;;;;5077289;28;20476;-62
2023/02/26 04:47:13;;;;;;;5.33;2.90;;;-1.60;1.00;;;;;;5078453;28;20440;-62
2023/02/26 04:49:43;;;;;;;4.67;2.27;;;-1.60;1.00;;;;;;5078338;28;20972;-60
2023/02/26 04:52:10;;;;;;;3.90;2.33;;;-1.60;1.00;;;;;;5078431;28;20514;-62
2023/02/26 04:54:39;;;;;;;6.80;2.37;;;-1.60;1.00;;;;;;5059151;28;20769;-60
2023/02/26 04:57:07;;;;;;;5.27;2.60;;;-1.70;1.00;;;;;;5075681;28;20515;-61
2023/02/26 04:59:35;;;;;;;4.63;2.53;;;-1.60;1.00;;;;;;5076770;28;20900;-61
2023/02/26 05:02:02;;;;;;;6.43;2.37;;;-1.60;1.00;;;;;;5057544;28;20464;-62
2023/02/26 05:04:29;;;;;;;5.30;2.27;;;-1.60;1.00;;;;;;5072425;28;20470;-61
2023/02/26 05:06:57;;;;;;;4.57;2.53;;;-1.60;1.00;;;;;;5076989;28;20923;-61
2023/02/26 05:09:24;;;;;;;10.10;3.20;;;-1.60;1.00;;;;;;5078215;28;20484;-60
2023/02/26 05:11:53;;;;;;;5.57;2.50;;;-1.70;1.00;;;;;;5078243;28;20567;-61
2023/02/26 05:14:20;;;;;;;5.63;2.20;;;-1.70;1.00;;;;;;5075264;28;20467;-60
2023/02/26 05:16:48;;;;;;;7.80;3.10;;;-1.70;1.00;;;;;;5077181;28;20495;-61
2023/02/26 05:19:15;;;;;;;7.60;3.00;;;-1.90;1.00;;;;;;5076620;28;20474;-60
2023/02/26 05:21:43;;;;;;;3.43;2.40;;;-1.90;1.00;;;;;;5078161;28;20463;-57
2023/02/26 05:24:10;;;;;;;4.50;2.40;;;-1.90;1.00;;;;;;5077850;28;20548;-59
2023/02/26 05:26:38;;;;;;;3.60;2.33;;;-2.00;1.00;;;;;;5077797;28;20465;-60
2023/02/26 05:29:07;;;;;;;4.50;2.30;;;-1.90;1.00;;;;;;5075823;28;20560;-60
2023/02/26 05:31:34;;;;;;;5.43;2.47;;;-1.90;1.00;;;;;;5076174;28;20497;-60
2023/02/26 05:34:02;;;;;;;5.47;2.80;;;-2.00;1.00;;;;;;5076523;28;20474;-61
2023/02/26 05:36:30;;;;;;;5.10;2.60;;;-2.10;1.00;;;;;;5077739;28;20461;-60
2023/02/26 05:38:58;;;;;;;5.77;2.70;;;-2.10;1.00;;;;;;5076042;28;20898;-61
2023/02/26 05:41:25;;;;;;;4.40;2.70;;;-2.10;1.00;;;;;;5077954;28;20468;-61
2023/02/26 05:43:52;;;;;;;3.90;2.93;;;-2.10;1.00;;;;;;5076634;28;20473;-60
2023/02/26 05:46:21;;;;;;;4.60;2.50;;;-2.10;1.00;;;;;;5076527;28;20906;-60
2023/02/26 05:48:49;;;;;;;6.70;3.40;;;-2.20;1.00;;;;;;5076806;28;20474;-61
2023/02/26 05:51:16;;;;;;;4.80;2.53;;;-2.20;1.00;;;;;;5077734;28;20460;-61
2023/02/26 05:53:45;;;;;;;8.73;2.80;;;-2.20;1.00;;;;;;5075863;28;20477;-61
2023/02/26 05:56:12;;;;;;;4.17;2.40;;;-2.30;1.00;;;;;;5076835;28;20461;-61
2023/02/26 05:58:39;;;;;;;4.60;2.73;;;-2.20;1.00;;;;;;5076715;28;20492;-61
2023/02/26 06:01:07;;;;;;;3.77;2.47;;;-2.30;1.00;;;;;;5076281;28;20467;-60
2023/02/26 06:03:39;;;;;;;6.63;3.00;;;-2.30;1.00;;;;;;5076252;28;20493;-60
2023/02/26 06:06:06;;;;;;;5.67;2.87;;;-2.30;1.00;;;;;;5074427;28;20468;-60
2023/02/26 06:08:34;;;;;;;5.27;2.30;;;-2.30;1.00;;;;;;5077449;28;20511;-61
2023/02/26 06:11:01;;;;;;;4.93;2.50;;;-2.30;1.00;;;;;;5076273;28;20492;-61
2023/02/26 06:13:29;;;;;;;5.07;2.33;;;-2.20;1.00;;;;;;5081921;28;20457;-60
2023/02/26 06:15:56;;;;;;;4.60;2.60;;;-2.10;1.00;;;;;;5081871;28;20512;-60
2023/02/26 06:18:23;;;;;;;5.87;2.53;;;-2.10;1.00;;;;;;5083174;28;20469;-60
2023/02/26 06:20:52;;;;;;;4.13;2.90;;;-2.10;1.00;;;;;;5084411;28;20461;-59
2023/02/26 06:23:20;;;;;;;12.90;3.03;;;-2.10;1.00;;;;;;5083967;28;20878;-59
2023/02/26 06:25:47;;;;;;;4.80;2.40;;;-2.10;1.00;;;;;;5082714;28;20481;-58
2023/02/26 06:28:14;;;;;;;9.37;3.30;;;-2.20;1.00;;;;;;5082127;28;20476;-59
2023/02/26 06:30:42;;;;;;;7.57;3.87;;;-2.20;1.00;;;;;;5080252;28;20491;-60
2023/02/26 06:33:09;;;;;;;8.27;3.50;;;-2.10;1.00;;;;;;5083685;28;20562;-57
2023/02/26 06:35:37;;;;;;;13.10;7.07;;;-2.10;1.00;;;;;;5083393;28;20497;-59
2023/02/26 06:38:06;;;;;;;6.50;3.53;;;-2.10;1.00;;;;;;5083071;28;20740;-60
2023/02/26 06:40:33;;;;;;;4.37;2.50;;;-2.00;1.00;;;;;;5084011;28;20799;-59
2023/02/26 06:43:00;;;;;;;3.27;2.33;;;-2.00;1.00;;;;;;5080071;28;20509;-60
2023/02/26 06:45:28;;;;;;;4.67;2.47;;;-2.00;1.00;;;;;;5072704;28;20469;-60
2023/02/26 06:47:55;;;;;;;5.60;2.80;;;-2.00;1.00;;;;;;5084063;28;20467;-60
2023/02/26 06:50:23;;;;;;;7.50;3.20;;;-2.10;1.00;;;;;;5082396;28;20489;-60
2023/02/26 06:52:50;;;;;;;2.60;2.00;;;-2.10;1.00;;;;;;5082573;28;20472;-59
2023/02/26 06:55:20;;;;;;;3.87;2.13;;;-2.10;1.00;;;;;;5083856;28;20467;-60
2023/02/26 06:57:48;;;;;;;6.77;3.40;;;-2.10;1.00;;;;;;5080907;28;20476;-60
2023/02/26 07:00:16;;;;;;;5.00;2.53;;;-2.10;1.00;;;;;;5076893;28;20469;-60
2023/02/26 07:02:43;;;;;;;4.37;2.67;;;-2.10;1.00;;;;;;5079387;28;20473;-60
2023/02/26 07:05:10;;;;;;;6.27;2.33;;;-2.00;1.00;;;;;;5083121;28;20465;-59
2023/02/26 07:07:37;;;;;;;6.47;2.97;;;-2.00;1.00;;;;;;5083307;28;20991;-58
2023/02/26 07:10:06;;;;;;;4.93;3.40;;;-2.10;1.00;;;;;;5083585;28;20731;-56
2023/02/26 07:12:35;;;;;;;4.80;2.60;;;-2.10;1.00;;;;;;5083561;28;20509;-59
2023/02/26 07:15:02;;;;;;;8.83;2.53;;;-2.00;1.00;;;;;;5083589;28;20526;-60
2023/02/26 07:17:30;;;;;;;4.33;2.67;;;-2.10;1.00;;;;;;5083241;28;20461;-60
2023/02/26 07:19:57;;;;;;;4.80;2.40;;;-2.00;1.00;;;;;;5083171;28;20461;-58
2023/02/26 07:22:25;;;;;;;6.63;2.20;;;-2.00;1.00;;;;;;5083657;28;20467;-59
2023/02/26 07:24:52;;;;;;;6.30;3.00;;;-1.90;1.00;;;;;;5080911;28;20472;-59
2023/02/26 07:27:19;;;;;;;6.87;2.83;;;-1.80;1.00;;;;;;5080387;28;20874;-58
2023/02/26 07:29:48;;;;;;;4.80;2.53;;;-1.80;1.00;;;;;;5079934;28;20461;-58
2023/02/26 07:32:16;;;;;;;5.50;2.37;;;-1.70;1.00;;;;;;5080319;28;20500;-58
2023/02/26 07:34:43;;;;;;;4.10;2.10;;;-1.60;1.00;;;;;;5080399;28;20464;-60
2023/02/26 07:37:10;;;;;;;4.20;2.23;;;-1.60;1.00;;;;;;5078476;28;20486;-60
2023/02/26 07:39:38;;;;;;;3.50;2.53;;;-1.50;1.00;;;;;;5062637;28;20462;-60
2023/02/26 07:42:05;;;;;;;5.10;3.60;;;-1.40;1.00;;;;;;5078268;28;20480;-59
2023/02/26 07:44:32;;;;;;;7.13;4.63;;;-1.40;1.00;;;;;;5078440;28;20468;-60
2023/02/26 07:47:02;;;;;;;5.77;2.77;;;-1.30;1.00;;;;;;5075902;28;20472;-59
2023/02/26 07:49:29;;;;;;;6.30;2.50;;;-1.20;1.00;;;;;;5074658;28;20468;-60
2023/02/26 07:51:56;;;;;;;5.00;3.00;;;-1.00;1.00;;;;;;5077359;28;20494;-60
2023/02/26 07:54:24;;;;;;;3.27;2.23;;;-0.90;1.00;;;;;;5077129;28;20473;-59
2023/02/26 07:56:51;;;;;;;6.07;3.27;;;-0.70;1.00;;;;;;5078498;28;20741;-58
2023/02/26 07:59:18;;;;;;;7.97;3.23;;;-0.90;1.00;;;;;;5078784;28;20876;-60
2023/02/26 08:01:45;;;;;;;8.40;3.30;;;-0.90;1.00;;;;;;5078963;28;20466;-58
2023/02/26 08:04:14;;;;;;;3.27;2.30;;;-0.70;1.00;;;;;;5078088;28;20559;-59
2023/02/26 08:06:41;;;;;;;7.00;2.93;;;-0.40;1.00;;;;;;5078576;28;20506;-57
2023/02/26 08:09:09;;;;;;;5.70;2.17;;;-0.10;1.00;;;;;;5078304;28;20468;-54
2023/02/26 08:11:39;;;;;;;6.00;2.43;;;0.20;1.00;;;;;;5078410;28;20989;-55
2023/02/26 08:14:06;;;;;;;3.50;2.80;;;0.20;1.00;;;;;;5078525;28;20472;-58
2023/02/26 08:16:33;;;;;;;4.67;2.30;;;0.60;1.00;;;;;;5074210;28;20522;-54
2023/02/26 08:19:01;;;;;;;5.37;2.30;;;0.90;1.00;;;;;;5075667;28;20559;-58
2023/02/26 08:21:30;;;;;;;2.87;2.20;;;1.40;1.00;;;;;;5078105;28;20461;-59
2023/02/26 08:23:57;;;;;;;4.27;2.33;;;1.30;1.00;;;;;;5077622;28;20465;-59
2023/02/26 08:26:24;;;;;;;6.17;3.07;;;1.30;1.00;;;;;;5078182;28;20470;-59
2023/02/26 08:28:52;;;;;;;4.80;2.43;;;1.40;1.00;;;;;;5077680;28;20436;-60
2023/02/26 08:31:19;;;;;;;4.50;2.00;;;1.70;1.00;;;;;;5078209;28;20515;-60
2023/02/26 08:33:47;;;;;;;4.33;2.70;;;1.80;1.00;;;;;;5076431;28;20461;-59
2023/02/26 08:36:14;;;;;;;3.83;2.27;;;2.10;1.00;;;;;;5074886;28;20462;-60
2023/02/26 08:38:43;;;;;;;4.23;2.10;;;2.30;99.90;;;;;;5075822;28;20461;-58
2023/02/26 08:41:10;;;;;;;3.70;2.33;;;2.30;99.90;;;;;;5071766;28;20472;-58
2023/02/26 08:43:37;;;;;;;7.67;3.47;;;2.10;99.90;;;;;;5076639;28;20449;-58
2023/02/26 08:46:05;;;;;;;4.50;2.70;;;2.30;99.90;;;;;;5075846;28;20465;-57
2023/02/26 08:48:32;;;;;;;5.80;2.70;;;2.40;99.90;;;;;;5070025;28;20514;-60
2023/02/26 08:50:59;;;;;;;4.10;1.80;;;2.60;99.90;;;;;;5055462;28;20501;-58
2023/02/26 08:53:27;;;;;;;3.50;2.17;;;2.70;99.90;;;;;;5055567;28;20458;-59
2023/02/26 08:55:55;;;;;;;3.60;2.80;;;2.60;99.90;;;;;;5060522;28;20816;-59
2023/02/26 08:58:23;;;;;;;4.37;2.77;;;2.70;99.90;;;;;;5073498;28;20506;-59
2023/02/26 09:00:50;;;;;;;9.60;3.10;;;2.90;99.90;;;;;;5076132;28;20457;-61
2023/02/26 09:03:17;;;;;;;5.00;2.63;;;3.20;99.90;;;;;;5075743;28;20465;-61
2023/02/26 09:05:44;;;;;;;3.27;2.10;;;3.00;99.90;;;;;;5076074;28;20572;-61
2023/02/26 09:08:14;;;;;;;3.80;2.20;;;3.50;99.90;;;;;;5075944;28;20479;-61
2023/02/26 09:10:41;;;;;;;6.73;3.00;;;3.70;99.90;;;;;;5075731;28;20544;-60
2023/02/26 09:13:10;;;;;;;5.10;2.50;;;3.40;99.90;;;;;;5072873;28;20477;-61
2023/02/26 09:15:37;;;;;;;4.30;2.30;;;3.40;99.90;;;;;;5071784;28;20759;-61
2023/02/26 09:18:05;;;;;;;3.53;2.50;;;3.50;99.90;;;;;;5073646;28;20894;-61
2023/02/26 09:20:32;;;;;;;3.30;2.10;;;3.70;99.90;;;;;;5073725;28;20472;-60
2023/02/26 09:22:59;;;;;;;3.23;2.50;;;3.70;99.90;;;;;;5076267;28;20550;-62
2023/02/26 09:25:26;;;;;;;4.30;2.60;;;4.10;99.90;;;;;;5074414;28;20777;-62
2023/02/26 09:27:54;;;;;;;4.90;2.67;;;4.60;99.90;;;;;;5075825;28;20469;-62
2023/02/26 09:30:22;;;;;;;3.73;2.13;;;4.30;99.90;;;;;;5076153;28;20473;-62
2023/02/26 09:32:49;;;;;;;3.33;2.20;;;4.30;99.90;;;;;;5074836;28;20472;-61
2023/02/26 09:35:17;;;;;;;4.87;2.17;;;4.40;99.90;;;;;;5076118;28;20532;-61
2023/02/26 09:37:44;;;;;;;3.60;2.03;;;4.40;99.90;;;;;;5075300;28;20779;-61
2023/02/26 09:40:24;;;;;;;3.33;2.20;;;4.70;99.90;;;;;;5074817;28;20473;-61
2023/02/26 09:43:06;;;;;;;2.87;2.30;;;4.60;99.90;;;;;;5075490;28;20478;-61
2023/02/26 09:45:38;;;;;;;3.30;1.80;;;4.40;99.90;;;;;;5075898;28;20461;-59
2023/02/26 09:48:07;;;;;;;3.10;2.10;;;4.70;99.90;;;;;;5072792;28;20469;-62
2023/02/26 09:50:43;;;;;;;5.13;1.97;;;4.10;99.90;;;;;;5074696;28;20451;-61
2023/02/26 09:53:17;;;;;;;3.07;2.47;;;3.90;99.90;;;;;;5075821;28;20508;-61
2023/02/26 09:55:46;;;;;;;3.03;2.00;;;3.80;99.90;;;;;;5073872;28;20480;-60
2023/02/26 09:58:27;;;;;;;7.93;2.40;;;3.80;99.90;;;;;;5074406;28;20859;-60
2023/02/26 10:01:04;;;;;;;3.17;2.13;;;4.30;99.90;;;;;;5074677;28;21127;-61
2023/02/26 10:03:41;;;;;;;5.57;1.80;;;4.60;99.90;;;;;;5074346;28;20465;-60
2023/02/26 10:06:18;;;;;;;3.20;1.73;;;5.10;99.90;;;;;;5074257;28;20491;-59
2023/02/26 10:09:07;;;;;;;2.63;2.00;;;5.40;99.90;;;;;;5070654;28;20496;-59
2023/02/26 10:11:45;;;;;;;3.23;1.90;;;5.70;99.90;;;;;;5074207;28;20542;-60
2023/02/26 10:14:18;;;;;;;5.00;2.57;;;5.60;99.90;;;;;;5075566;28;20468;-61
2023/02/26 10:16:52;;;;;;;2.03;1.60;;;5.90;99.90;;;;;;5072674;28;20879;-62
2023/02/26 10:19:22;;;;;;;6.23;2.10;;;5.00;99.90;;;;;;5059205;28;20473;-63
2023/02/26 10:21:54;;;;;;;4.60;1.80;;;5.10;99.90;;;;;;5064681;28;20478;-62
2023/02/26 10:24:25;;;;;;;3.83;2.00;;;4.40;99.90;;;;;;5076398;28;20552;-62
2023/02/26 10:26:57;;;;;;;3.33;2.20;;;4.50;99.90;;;;;;5074690;28;20870;-62
2023/02/26 10:29:32;;;;;;;2.67;1.80;;;5.00;99.90;;;;;;5074524;28;20519;-61
2023/02/26 10:32:07;;;;;;;2.70;2.00;;;4.70;99.90;;;;;;5071986;28;20493;-62
2023/02/26 10:34:39;;;;;;;3.97;1.70;;;4.70;99.90;;;;;;5071002;28;20473;-61
2023/02/26 10:37:17;;;;;;;2.80;2.20;;;4.50;99.90;;;;;;5068660;28;20465;-60
2023/02/26 10:39:50;;;;;;;2.17;1.93;;;4.90;99.90;;;;;;5074597;28;20457;-61
2023/02/26 10:42:23;;;;;;;3.43;2.20;;;4.30;99.90;;;;;;5075420;28;20454;-61
2023/02/26 10:45:00;;;;;;;3.27;1.77;;;3.70;99.90;;;;;;5075696;28;20465;-61
2023/02/26 10:47:37;;;;;;;3.17;2.30;;;3.10;99.90;;;;;;5073843;28;20468;-61
2023/02/26 10:50:06;;;;;;;2.50;1.97;;;3.10;99.90;;;;;;5075734;28;20544;-62
2023/02/26 10:52:36;;;;;;;4.93;1.87;;;3.10;99.90;;;;;;5074271;28;20511;-61
2023/02/26 10:55:29;;;;;;;3.10;1.77;;;2.80;99.90;;;;;;5073771;28;20447;-61
2023/02/26 10:58:04;;;;;;;3.40;2.30;;;2.60;99.90;;;;;;5069992;28;20469;-61
2023/02/26 11:00:31;;;;;;;4.70;1.90;;;2.60;99.90;;;;;;5076742;28;20468;-58
2023/02/26 11:03:01;;;;;;;4.53;2.10;;;2.70;99.90;;;;;;5079756;28;20953;-60
2023/02/26 11:05:31;;;;;;;4.47;2.07;;;3.30;99.90;;;;;;5077569;28;21068;-61
2023/02/26 11:08:03;;;;;;;5.20;2.27;;;3.30;99.90;;;;;;5077116;28;20473;-60
2023/02/26 11:10:41;;;;;;;7.07;4.90;;;3.30;99.90;;;;;;5078930;28;20469;-61
2023/02/26 11:13:09;;;;;;;2.37;1.90;;;3.00;99.90;;;;;;5076016;28;20492;-60
2023/02/26 11:15:36;;;;;;;3.10;1.53;;;2.90;99.90;;;;;;5078133;28;20923;-61
2023/02/26 11:18:05;;;;;;;2.47;1.80;;;3.00;99.90;;;;;;5078647;28;20461;-60
2023/02/26 11:20:38;;;;;;;3.73;2.13;;;3.40;99.90;;;;;;5079611;28;20479;-60
2023/02/26 11:23:11;;;;;;;2.67;1.83;;;3.60;99.90;;;;;;5077801;28;20449;-61
2023/02/26 11:25:39;;;;;;;2.90;2.00;;;3.50;99.90;;;;;;5078978;28;20471;-61
2023/02/26 11:28:08;;;;;;;5.77;2.00;;;3.40;99.90;;;;;;5078802;28;20894;-61
2023/02/26 11:30:38;;;;;;;4.27;2.90;;;3.30;99.90;;;;;;5078524;28;20552;-60
2023/02/26 11:33:17;;;;;;;5.30;2.20;;;3.40;99.90;;;;;;5077708;28;20485;-61
2023/02/26 11:35:45;;;;;;;4.50;2.40;;;3.40;99.90;;;;;;5077526;28;20453;-60
2023/02/26 11:38:19;;;;;;;6.70;2.40;;;4.40;99.90;;;;;;5077313;28;20543;-62
2023/02/26 11:40:49;;;;;;;4.83;3.20;;;5.10;99.90;;;;;;5074637;28;20450;-61
2023/02/26 11:43:19;;;;;;;3.33;2.67;;;5.40;99.90;;;;;;5076944;28;20584;-62
2023/02/26 11:45:49;;;;;;;3.30;2.40;;;5.80;99.90;;;;;;5077071;28;20914;-61
2023/02/26 11:48:24;;;;;;;3.03;2.43;;;5.70;99.90;;;;;;5077297;28;20788;-61
2023/02/26 11:50:56;;;;;;;3.30;2.20;;;6.30;99.90;;;;;;5075391;28;20463;-62
2023/02/26 11:53:31;;;;;;;2.73;2.03;;;6.80;99.90;;;;;;5076022;28;20498;-61
2023/02/26 11:56:02;;;;;;;2.67;2.03;;;7.00;99.90;;;;;;5076738;28;20456;-61
2023/02/26 11:58:37;;;;;;;4.20;2.33;;;7.30;99.90;;;;;;5074488;28;20462;-61
2023/02/26 12:01:07;;;;;;;3.83;2.03;;;7.00;99.90;;;;;;5073249;28;20480;-61
2023/02/26 12:03:39;;;;;;;2.47;1.70;;;6.80;99.90;;;;;;5073222;28;20469;-60
2023/02/26 12:06:14;;;;;;;3.03;2.20;;;6.20;99.90;;;;;;5073097;28;20464;-61
2023/02/26 12:08:41;;;;;;;4.70;2.40;;;6.80;99.90;;;;;;5076605;28;20456;-63
2023/02/26 12:11:35;;;;;;;2.53;2.10;;;7.30;99.90;;;;;;5076036;28;20786;-63
2023/02/26 12:14:15;;;;;;;2.90;1.83;;;7.90;99.90;;;;;;5075225;28;20449;-63
2023/02/26 12:16:55;;;;;;;2.40;2.17;;;7.80;99.90;;;;;;5072008;28;20542;-63
2023/02/26 12:19:34;;;;;;;3.87;1.80;;;8.10;99.90;;;;;;5073007;28;20473;-64
2023/02/26 12:22:22;;;;;;;3.57;2.23;;;8.10;99.90;;;;;;5074603;28;20467;-63
2023/02/26 12:25:12;;;;;;;4.80;2.00;;;7.80;99.90;;;;;;5077183;28;20531;-63
2023/02/26 12:27:57;;;;;;;2.17;1.90;;;7.10;99.90;;;;;;5075455;28;20453;-63
2023/02/26 12:30:41;;;;;;;2.97;2.33;;;7.30;99.90;;;;;;5075619;28;20874;-63
2023/02/26 12:33:27;;;;;;;2.90;1.97;;;7.10;99.90;;;;;;5076002;28;20482;-63
2023/02/26 12:36:08;;;;;;;2.97;2.00;;;5.70;99.90;;;;;;5072312;28;20465;-63
2023/02/26 12:38:47;;;;;;;2.80;1.60;;;5.20;99.90;;;;;;5074102;28;20745;-63
2023/02/26 12:41:41;;;;;;;2.47;2.27;;;5.00;99.90;;;;;;5073265;28;20440;-63
2023/02/26 12:44:20;;;;;;;4.63;2.10;;;5.70;99.90;;;;;;5073081;28;20491;-62
2023/02/26 12:47:04;;;;;;;2.90;1.97;;;6.60;99.90;;;;;;5075246;28;20495;-62
2023/02/26 12:49:54;;;;;;;3.70;2.23;;;6.90;99.90;;;;;;5069687;28;20468;-63
2023/02/26 12:52:51;;;;;;;5.33;2.40;;;7.30;99.90;;;;;;5067198;28;20489;-62
2023/02/26 12:55:27;;;;;;;3.30;2.37;;;7.40;99.90;;;;;;5072079;28;20932;-62
2023/02/26 12:58:30;;;;;;;2.50;2.30;;;7.20;99.90;;;;;;5072343;28;20909;-63
2023/02/26 13:01:32;;;;;;;3.90;2.37;;;7.00;99.90;;;;;;5067074;28;20458;-63
2023/02/26 13:04:38;;;;;;;2.47;2.20;;;6.90;99.90;;;;;;5071939;28;20718;-63
2023/02/26 13:07:33;;;;;;;2.90;1.60;;;7.30;99.90;;;;;;5070001;28;20499;-63
2023/02/26 13:10:08;;;;;;;3.00;2.07;;;7.50;99.90;;;;;;5069016;28;20475;-62
2023/02/26 13:12:47;;;;;;;2.57;1.87;;;8.00;99.90;;;;;;5073041;28;21546;-64
2023/02/26 13:15:41;;;;;;;2.97;2.37;;;7.90;99.90;;;;;;5072083;28;20476;-63
2023/02/26 13:18:15;;;;;;;3.77;1.90;;;6.80;99.90;;;;;;5074071;28;20540;-62
2023/02/26 13:20:55;;;;;;;3.73;2.17;;;5.70;99.90;;;;;;5073327;28;20477;-63